sensor_id;sensor_type;location;lat;lon;timestamp;pressure;altitude;pressure_sealevel;temperature;humidity
10518;BME280;5307;42.548;22.968;2023-12-20T00:01:36;94268.28;;;-3.59;100.00
10518;BME280;5307;42.548;22.968;2023-12-20T00:04:03;94271.22;;;-3.64;100.00
10518;BME280;5307;42.548;22.968;2023-12-20T00:06:30;94255.22;;;-3.64;100.00
10518;BME280;5307;42.548;22.968;2023-12-20T00:08:57;94271.59;;;-3.66;100.00
10518;BME280;5307;42.548;22.968;2023-12-20T00:11:25;94263.31;;;-3.76;100.00
10518;BME280;5307;42.548;22.968;2023-12-20T00:13:52;94260.88;;;-3.50;100.00
10518;BME280;5307;42.548;22.968;2023-12-20T00:16:19;94258.00;;;-3.41;100.00
10518;BME280;5307;42.548;22.968;2023-12-20T00:18:45;94254.50;;;-3.45;100.00
10518;BME280;5307;42.548;22.968;2023-12-20T00:21:12;94242.38;;;-3.59;100.00
10518;BME280;5307;42.548;22.968;2023-12-20T00:23:39;94242.97;;;-3.49;100.00
10518;BME280;5307;42.548;22.968;2023-12-20T00:26:06;94248.72;;;-3.47;100.00
10518;BME280;5307;42.548;22.968;2023-12-20T00:28:36;94246.00;;;-3.67;100.00
10518;BME280;5307;42.548;22.968;2023-12-20T00:31:03;94234.00;;;-3.92;100.00
10518;BME280;5307;42.548;22.968;2023-12-20T00:33:29;94236.13;;;-3.82;100.00
10518;BME280;5307;42.548;22.968;2023-12-20T00:35:57;94238.34;;;-3.68;100.00
10518;BME280;5307;42.548;22.968;2023-12-20T00:38:24;94223.81;;;-3.71;100.00
10518;BME280;5307;42.548;22.968;2023-12-20T00:40:50;94226.00;;;-3.57;100.00
10518;BME280;5307;42.548;22.968;2023-12-20T00:43:18;94227.19;;;-3.54;100.00
10518;BME280;5307;42.548;22.968;2023-12-20T00:45:46;94229.53;;;-3.53;100.00
10518;BME280;5307;42.548;22.968;2023-12-20T00:48:13;94220.50;;;-3.48;100.00
10518;BME280;5307;42.548;22.968;2023-12-20T00:50:40;94213.28;;;-3.64;100.00
10518;BME280;5307;42.548;22.968;2023-12-20T00:53:06;94221.97;;;-3.67;100.00
10518;BME280;5307;42.548;22.968;2023-12-20T00:55:33;94219.00;;;-3.81;100.00
10518;BME280;5307;42.548;22.968;2023-12-20T00:58:00;94216.19;;;-4.20;100.00
10518;BME280;5307;42.548;22.968;2023-12-20T01:00:27;94218.56;;;-3.83;100.00
10518;BME280;5307;42.548;22.968;2023-12-20T01:02:55;94208.72;;;-3.63;100.00
10518;BME280;5307;42.548;22.968;2023-12-20T01:05:22;94210.66;;;-3.79;100.00
10518;BME280;5307;42.548;22.968;2023-12-20T01:07:49;94210.16;;;-4.01;100.00
10518;BME280;5307;42.548;22.968;2023-12-20T01:10:15;94205.22;;;-3.83;100.00
10518;BME280;5307;42.548;22.968;2023-12-20T01:12:43;94201.09;;;-3.80;100.00
10518;BME280;5307;42.548;22.968;2023-12-20T01:15:10;94194.03;;;-3.73;100.00
10518;BME280;5307;42.548;22.968;2023-12-20T01:17:37;94194.63;;;-3.64;100.00
10518;BME280;5307;42.548;22.968;2023-12-20T01:20:06;94191.34;;;-3.73;100.00
10518;BME280;5307;42.548;22.968;2023-12-20T01:22:33;94193.53;;;-3.78;100.00
10518;BME280;5307;42.548;22.968;2023-12-20T01:25:01;94193.28;;;-3.89;100.00
10518;BME280;5307;42.548;22.968;2023-12-20T01:27:28;94187.44;;;-3.60;100.00
10518;BME280;5307;42.548;22.968;2023-12-20T01:29:56;94187.44;;;-3.79;100.00
10518;BME280;5307;42.548;22.968;2023-12-20T01:32:23;94186.56;;;-3.83;100.00
10518;BME280;5307;42.548;22.968;2023-12-20T01:34:49;94176.19;;;-3.69;100.00
10518;BME280;5307;42.548;22.968;2023-12-20T01:37:18;94171.84;;;-3.77;100.00
10518;BME280;5307;42.548;22.968;2023-12-20T01:39:44;94159.50;;;-4.01;100.00
10518;BME280;5307;42.548;22.968;2023-12-20T01:42:11;94165.41;;;-3.56;100.00
10518;BME280;5307;42.548;22.968;2023-12-20T01:44:38;94148.69;;;-3.53;100.00
10518;BME280;5307;42.548;22.968;2023-12-20T01:47:05;94144.53;;;-4.05;100.00
10518;BME280;5307;42.548;22.968;2023-12-20T01:49:32;94148.63;;;-3.92;100.00
10518;BME280;5307;42.548;22.968;2023-12-20T01:51:59;94143.72;;;-3.90;100.00
10518;BME280;5307;42.548;22.968;2023-12-20T01:54:27;94140.34;;;-3.87;100.00
10518;BME280;5307;42.548;22.968;2023-12-20T01:56:54;94130.91;;;-3.65;100.00
10518;BME280;5307;42.548;22.968;2023-12-20T01:59:21;94124.59;;;-3.76;100.00
10518;BME280;5307;42.548;22.968;2023-12-20T02:01:48;94121.25;;;-3.89;100.00
10518;BME280;5307;42.548;22.968;2023-12-20T02:04:16;94106.63;;;-3.79;100.00
10518;BME280;5307;42.548;22.968;2023-12-20T02:06:43;94119.00;;;-3.87;100.00
10518;BME280;5307;42.548;22.968;2023-12-20T02:09:12;94120.56;;;-3.67;100.00
10518;BME280;5307;42.548;22.968;2023-12-20T02:11:40;94113.44;;;-3.63;100.00
10518;BME280;5307;42.548;22.968;2023-12-20T02:14:07;94105.28;;;-3.70;100.00
10518;BME280;5307;42.548;22.968;2023-12-20T02:16:33;94109.31;;;-3.95;100.00
10518;BME280;5307;42.548;22.968;2023-12-20T02:19:00;94112.72;;;-3.60;100.00
10518;BME280;5307;42.548;22.968;2023-12-20T02:21:33;94111.59;;;-3.59;100.00
10518;BME280;5307;42.548;22.968;2023-12-20T02:24:00;94103.78;;;-3.67;100.00
10518;BME280;5307;42.548;22.968;2023-12-20T02:26:27;94097.06;;;-3.61;100.00
10518;BME280;5307;42.548;22.968;2023-12-20T02:28:55;94100.78;;;-3.66;100.00
10518;BME280;5307;42.548;22.968;2023-12-20T02:31:22;94091.38;;;-3.79;100.00
10518;BME280;5307;42.548;22.968;2023-12-20T02:33:49;94091.50;;;-3.72;100.00
10518;BME280;5307;42.548;22.968;2023-12-20T02:36:16;94101.91;;;-3.67;100.00
10518;BME280;5307;42.548;22.968;2023-12-20T02:38:44;94090.50;;;-3.83;100.00
10518;BME280;5307;42.548;22.968;2023-12-20T02:41:11;94095.38;;;-3.89;100.00
10518;BME280;5307;42.548;22.968;2023-12-20T02:43:38;94099.09;;;-3.54;100.00
10518;BME280;5307;42.548;22.968;2023-12-20T02:46:04;94091.56;;;-3.68;100.00
10518;BME280;5307;42.548;22.968;2023-12-20T02:48:31;94082.66;;;-3.76;100.00
10518;BME280;5307;42.548;22.968;2023-12-20T02:50:58;94078.59;;;-3.89;100.00
10518;BME280;5307;42.548;22.968;2023-12-20T02:53:24;94083.66;;;-3.65;100.00
10518;BME280;5307;42.548;22.968;2023-12-20T02:55:52;94078.31;;;-3.84;100.00
10518;BME280;5307;42.548;22.968;2023-12-20T02:58:19;94081.50;;;-3.94;100.00
10518;BME280;5307;42.548;22.968;2023-12-20T03:00:46;94081.75;;;-3.83;100.00
10518;BME280;5307;42.548;22.968;2023-12-20T03:03:13;94085.81;;;-3.70;100.00
10518;BME280;5307;42.548;22.968;2023-12-20T03:05:38;94072.06;;;-3.72;100.00
10518;BME280;5307;42.548;22.968;2023-12-20T03:08:05;94077.34;;;-3.76;100.00
10518;BME280;5307;42.548;22.968;2023-12-20T03:10:32;94080.34;;;-3.77;100.00
10518;BME280;5307;42.548;22.968;2023-12-20T03:13:00;94072.63;;;-3.63;100.00
10518;BME280;5307;42.548;22.968;2023-12-20T03:15:27;94069.88;;;-3.67;100.00
10518;BME280;5307;42.548;22.968;2023-12-20T03:17:53;94067.66;;;-3.65;100.00
10518;BME280;5307;42.548;22.968;2023-12-20T03:20:20;94071.28;;;-3.53;100.00
10518;BME280;5307;42.548;22.968;2023-12-20T03:22:47;94066.59;;;-3.60;100.00
10518;BME280;5307;42.548;22.968;2023-12-20T03:25:14;94067.47;;;-3.52;100.00
10518;BME280;5307;42.548;22.968;2023-12-20T03:27:41;94062.50;;;-3.73;100.00
10518;BME280;5307;42.548;22.968;2023-12-20T03:30:09;94055.50;;;-3.62;100.00
10518;BME280;5307;42.548;22.968;2023-12-20T03:32:37;94057.50;;;-3.55;100.00
10518;BME280;5307;42.548;22.968;2023-12-20T03:35:05;94062.41;;;-3.38;100.00
10518;BME280;5307;42.548;22.968;2023-12-20T03:37:32;94050.78;;;-3.49;100.00
10518;BME280;5307;42.548;22.968;2023-12-20T03:39:59;94053.31;;;-3.56;100.00
10518;BME280;5307;42.548;22.968;2023-12-20T03:42:25;94054.72;;;-3.63;100.00
10518;BME280;5307;42.548;22.968;2023-12-20T03:44:52;94042.88;;;-3.65;100.00
10518;BME280;5307;42.548;22.968;2023-12-20T03:47:20;94048.81;;;-3.91;100.00
10518;BME280;5307;42.548;22.968;2023-12-20T03:49:47;94046.91;;;-3.71;100.00
10518;BME280;5307;42.548;22.968;2023-12-20T03:52:14;94046.09;;;-3.75;100.00
10518;BME280;5307;42.548;22.968;2023-12-20T03:54:40;94039.91;;;-3.60;100.00
10518;BME280;5307;42.548;22.968;2023-12-20T03:57:08;94048.53;;;-4.05;100.00
10518;BME280;5307;42.548;22.968;2023-12-20T03:59:35;94043.91;;;-3.70;100.00
10518;BME280;5307;42.548;22.968;2023-12-20T04:02:02;94037.94;;;-3.63;100.00
10518;BME280;5307;42.548;22.968;2023-12-20T04:04:30;94029.00;;;-3.51;100.00
10518;BME280;5307;42.548;22.968;2023-12-20T04:06:57;94033.22;;;-3.50;100.00
10518;BME280;5307;42.548;22.968;2023-12-20T04:09:24;94033.50;;;-3.55;100.00
10518;BME280;5307;42.548;22.968;2023-12-20T04:11:51;94033.22;;;-3.50;100.00
10518;BME280;5307;42.548;22.968;2023-12-20T04:14:18;94041.94;;;-3.92;100.00
10518;BME280;5307;42.548;22.968;2023-12-20T04:16:44;94031.34;;;-3.89;100.00
10518;BME280;5307;42.548;22.968;2023-12-20T04:19:11;94026.41;;;-3.67;100.00
10518;BME280;5307;42.548;22.968;2023-12-20T04:21:39;94035.19;;;-3.47;100.00
10518;BME280;5307;42.548;22.968;2023-12-20T04:24:06;94028.81;;;-3.62;100.00
10518;BME280;5307;42.548;22.968;2023-12-20T04:26:33;94028.44;;;-3.61;100.00
10518;BME280;5307;42.548;22.968;2023-12-20T04:29:00;94025.78;;;-3.61;100.00
10518;BME280;5307;42.548;22.968;2023-12-20T04:31:27;94027.78;;;-3.77;100.00
10518;BME280;5307;42.548;22.968;2023-12-20T04:33:53;94027.19;;;-3.47;100.00
10518;BME280;5307;42.548;22.968;2023-12-20T04:36:20;94026.56;;;-3.60;100.00
10518;BME280;5307;42.548;22.968;2023-12-20T04:38:49;94023.81;;;-3.83;100.00
10518;BME280;5307;42.548;22.968;2023-12-20T04:41:15;94011.38;;;-3.95;100.00
10518;BME280;5307;42.548;22.968;2023-12-20T04:43:44;94005.91;;;-3.63;100.00
10518;BME280;5307;42.548;22.968;2023-12-20T04:46:10;94012.84;;;-3.59;100.00
10518;BME280;5307;42.548;22.968;2023-12-20T04:48:37;94007.72;;;-3.67;100.00
10518;BME280;5307;42.548;22.968;2023-12-20T04:51:04;94006.81;;;-3.55;100.00
10518;BME280;5307;42.548;22.968;2023-12-20T04:53:31;94003.47;;;-3.72;100.00
10518;BME280;5307;42.548;22.968;2023-12-20T04:55:59;94004.16;;;-3.75;100.00
10518;BME280;5307;42.548;22.968;2023-12-20T04:58:26;94003.47;;;-3.72;100.00
10518;BME280;5307;42.548;22.968;2023-12-20T05:00:53;93999.94;;;-3.56;100.00
10518;BME280;5307;42.548;22.968;2023-12-20T05:03:19;93991.03;;;-3.41;100.00
10518;BME280;5307;42.548;22.968;2023-12-20T05:05:46;93993.34;;;-3.82;100.00
10518;BME280;5307;42.548;22.968;2023-12-20T05:08:13;93976.06;;;-3.69;100.00
10518;BME280;5307;42.548;22.968;2023-12-20T05:10:40;93988.69;;;-3.46;100.00
10518;BME280;5307;42.548;22.968;2023-12-20T05:13:09;93982.97;;;-3.45;100.00
10518;BME280;5307;42.548;22.968;2023-12-20T05:15:36;93984.31;;;-3.54;100.00
10518;BME280;5307;42.548;22.968;2023-12-20T05:18:03;93983.19;;;-3.53;100.00
10518;BME280;5307;42.548;22.968;2023-12-20T05:20:30;93978.72;;;-3.49;100.00
10518;BME280;5307;42.548;22.968;2023-12-20T05:22:56;93973.28;;;-3.53;100.00
10518;BME280;5307;42.548;22.968;2023-12-20T05:25:23;93968.44;;;-3.47;100.00
10518;BME280;5307;42.548;22.968;2023-12-20T05:27:50;93964.13;;;-4.17;100.00
10518;BME280;5307;42.548;22.968;2023-12-20T05:30:18;93959.59;;;-3.74;100.00
10518;BME280;5307;42.548;22.968;2023-12-20T05:32:45;93964.09;;;-3.98;100.00
10518;BME280;5307;42.548;22.968;2023-12-20T05:35:12;93957.69;;;-3.74;100.00
10518;BME280;5307;42.548;22.968;2023-12-20T05:37:39;93961.47;;;-3.75;100.00
10518;BME280;5307;42.548;22.968;2023-12-20T05:40:06;93959.31;;;-3.46;100.00
10518;BME280;5307;42.548;22.968;2023-12-20T05:42:35;93958.28;;;-4.03;100.00
10518;BME280;5307;42.548;22.968;2023-12-20T05:45:02;93958.66;;;-3.82;100.00
10518;BME280;5307;42.548;22.968;2023-12-20T05:47:30;93956.88;;;-3.78;100.00
10518;BME280;5307;42.548;22.968;2023-12-20T05:49:57;93955.47;;;-3.91;100.00
10518;BME280;5307;42.548;22.968;2023-12-20T05:52:24;93958.63;;;-4.05;100.00
10518;BME280;5307;42.548;22.968;2023-12-20T05:54:52;93954.59;;;-3.76;100.00
10518;BME280;5307;42.548;22.968;2023-12-20T05:57:18;93947.47;;;-3.91;100.00
10518;BME280;5307;42.548;22.968;2023-12-20T05:59:45;93951.81;;;-4.02;100.00
10518;BME280;5307;42.548;22.968;2023-12-20T06:02:18;93943.34;;;-4.08;100.00
10518;BME280;5307;42.548;22.968;2023-12-20T06:04:46;93951.88;;;-4.37;100.00
10518;BME280;5307;42.548;22.968;2023-12-20T06:07:13;93947.19;;;-4.25;100.00
10518;BME280;5307;42.548;22.968;2023-12-20T06:10:01;93944.38;;;-3.93;100.00
10518;BME280;5307;42.548;22.968;2023-12-20T06:12:28;93947.03;;;-3.74;100.00
10518;BME280;5307;42.548;22.968;2023-12-20T06:14:57;93948.47;;;-4.19;100.00
10518;BME280;5307;42.548;22.968;2023-12-20T06:17:37;93943.50;;;-4.20;100.00
10518;BME280;5307;42.548;22.968;2023-12-20T06:20:07;93939.38;;;-3.95;100.00
10518;BME280;5307;42.548;22.968;2023-12-20T06:22:34;93938.69;;;-3.92;100.00
10518;BME280;5307;42.548;22.968;2023-12-20T06:28:14;93935.13;;;-3.99;100.00
10518;BME280;5307;42.548;22.968;2023-12-20T06:30:40;93937.78;;;-4.38;100.00
10518;BME280;5307;42.548;22.968;2023-12-20T06:33:07;93938.44;;;-4.06;100.00
10518;BME280;5307;42.548;22.968;2023-12-20T06:35:36;93948.25;;;-4.29;100.00
10518;BME280;5307;42.548;22.968;2023-12-20T06:38:03;93945.56;;;-4.10;100.00
10518;BME280;5307;42.548;22.968;2023-12-20T06:40:30;93942.81;;;-3.75;100.00
10518;BME280;5307;42.548;22.968;2023-12-20T06:42:58;93938.44;;;-3.64;100.00
10518;BME280;5307;42.548;22.968;2023-12-20T06:45:25;93934.19;;;-3.88;100.00
10518;BME280;5307;42.548;22.968;2023-12-20T06:47:52;93955.47;;;-3.49;100.00
10518;BME280;5307;42.548;22.968;2023-12-20T06:50:20;93949.72;;;-3.51;100.00
10518;BME280;5307;42.548;22.968;2023-12-20T06:52:48;93937.66;;;-3.64;100.00
10518;BME280;5307;42.548;22.968;2023-12-20T06:55:15;93933.25;;;-3.53;100.00
10518;BME280;5307;42.548;22.968;2023-12-20T06:57:43;93931.13;;;-3.67;100.00
10518;BME280;5307;42.548;22.968;2023-12-20T07:00:11;93928.94;;;-4.03;100.00
10518;BME280;5307;42.548;22.968;2023-12-20T07:02:38;93927.31;;;-3.89;100.00
10518;BME280;5307;42.548;22.968;2023-12-20T07:05:07;93924.72;;;-3.85;100.00
10518;BME280;5307;42.548;22.968;2023-12-20T07:07:34;93921.78;;;-3.80;100.00
10518;BME280;5307;42.548;22.968;2023-12-20T07:10:03;93920.59;;;-3.60;100.00
10518;BME280;5307;42.548;22.968;2023-12-20T07:12:47;93911.88;;;-3.34;100.00
10518;BME280;5307;42.548;22.968;2023-12-20T07:15:14;93922.81;;;-3.39;100.00
10518;BME280;5307;42.548;22.968;2023-12-20T07:17:41;93909.56;;;-3.35;100.00
10518;BME280;5307;42.548;22.968;2023-12-20T07:28:53;93899.31;;;-3.30;100.00
10518;BME280;5307;42.548;22.968;2023-12-20T07:31:20;93910.91;;;-3.45;100.00
10518;BME280;5307;42.548;22.968;2023-12-20T07:33:47;93903.56;;;-3.51;100.00
10518;BME280;5307;42.548;22.968;2023-12-20T07:36:13;93901.81;;;-3.17;100.00
10518;BME280;5307;42.548;22.968;2023-12-20T07:38:40;93889.63;;;-3.15;100.00
10518;BME280;5307;42.548;22.968;2023-12-20T07:41:09;93892.66;;;-2.90;100.00
10518;BME280;5307;42.548;22.968;2023-12-20T07:43:36;93886.34;;;-3.05;100.00
10518;BME280;5307;42.548;22.968;2023-12-20T07:46:08;93895.09;;;-2.81;100.00
10518;BME280;5307;42.548;22.968;2023-12-20T07:48:35;93888.88;;;-2.59;100.00
10518;BME280;5307;42.548;22.968;2023-12-20T07:51:02;93890.22;;;-2.72;100.00
10518;BME280;5307;42.548;22.968;2023-12-20T07:53:29;93883.91;;;-2.60;100.00
10518;BME280;5307;42.548;22.968;2023-12-20T07:55:56;93878.72;;;-2.76;100.00
10518;BME280;5307;42.548;22.968;2023-12-20T07:58:23;93883.16;;;-2.57;100.00
10518;BME280;5307;42.548;22.968;2023-12-20T08:00:49;93889.59;;;-2.32;100.00
10518;BME280;5307;42.548;22.968;2023-12-20T08:03:17;93873.66;;;-2.55;100.00
10518;BME280;5307;42.548;22.968;2023-12-20T08:05:44;93881.41;;;-2.76;100.00
10518;BME280;5307;42.548;22.968;2023-12-20T08:08:11;93873.59;;;-2.88;100.00
10518;BME280;5307;42.548;22.968;2023-12-20T08:10:38;93873.03;;;-3.01;100.00
10518;BME280;5307;42.548;22.968;2023-12-20T08:13:04;93881.66;;;-2.85;100.00
10518;BME280;5307;42.548;22.968;2023-12-20T08:15:32;93868.44;;;-2.74;100.00
10518;BME280;5307;42.548;22.968;2023-12-20T08:17:59;93865.38;;;-2.76;100.00
10518;BME280;5307;42.548;22.968;2023-12-20T08:20:27;93863.91;;;-2.70;100.00
10518;BME280;5307;42.548;22.968;2023-12-20T08:22:53;93865.59;;;-2.58;100.00
10518;BME280;5307;42.548;22.968;2023-12-20T08:25:20;93864.66;;;-2.40;100.00
10518;BME280;5307;42.548;22.968;2023-12-20T08:27:47;93865.63;;;-2.55;100.00
10518;BME280;5307;42.548;22.968;2023-12-20T08:30:14;93861.69;;;-2.34;100.00
10518;BME280;5307;42.548;22.968;2023-12-20T08:32:42;93852.69;;;-2.53;100.00
10518;BME280;5307;42.548;22.968;2023-12-20T08:35:09;93845.44;;;-2.15;100.00
10518;BME280;5307;42.548;22.968;2023-12-20T08:37:37;93841.03;;;-2.37;100.00
10518;BME280;5307;42.548;22.968;2023-12-20T08:40:05;93842.19;;;-2.35;100.00
10518;BME280;5307;42.548;22.968;2023-12-20T08:42:32;93836.91;;;-2.28;100.00
10518;BME280;5307;42.548;22.968;2023-12-20T08:44:59;93832.47;;;-2.13;100.00
10518;BME280;5307;42.548;22.968;2023-12-20T08:47:26;93832.56;;;-2.40;100.00
10518;BME280;5307;42.548;22.968;2023-12-20T08:49:52;93824.47;;;-2.50;100.00
10518;BME280;5307;42.548;22.968;2023-12-20T08:52:22;93832.44;;;-2.17;100.00
10518;BME280;5307;42.548;22.968;2023-12-20T08:54:50;93827.50;;;-1.74;100.00
10518;BME280;5307;42.548;22.968;2023-12-20T08:57:18;93820.31;;;-2.07;100.00
10518;BME280;5307;42.548;22.968;2023-12-20T08:59:44;93811.25;;;-1.95;100.00
10518;BME280;5307;42.548;22.968;2023-12-20T09:02:11;93805.28;;;-1.78;100.00
10518;BME280;5307;42.548;22.968;2023-12-20T09:04:38;93804.44;;;-1.89;100.00
10518;BME280;5307;42.548;22.968;2023-12-20T09:07:05;93798.16;;;-1.63;100.00
10518;BME280;5307;42.548;22.968;2023-12-20T09:09:32;93804.66;;;-2.05;100.00
10518;BME280;5307;42.548;22.968;2023-12-20T09:12:01;93798.13;;;-2.11;100.00
10518;BME280;5307;42.548;22.968;2023-12-20T09:14:28;93789.25;;;-1.78;100.00
10518;BME280;5307;42.548;22.968;2023-12-20T09:16:54;93771.38;;;-1.63;100.00
10518;BME280;5307;42.548;22.968;2023-12-20T09:19:21;93768.03;;;-1.50;100.00
10518;BME280;5307;42.548;22.968;2023-12-20T09:21:48;93768.44;;;-1.44;100.00
10518;BME280;5307;42.548;22.968;2023-12-20T09:24:15;93760.13;;;-1.28;100.00
10518;BME280;5307;42.548;22.968;2023-12-20T09:26:42;93757.03;;;-1.34;100.00
10518;BME280;5307;42.548;22.968;2023-12-20T09:29:11;93756.81;;;-1.07;100.00
10518;BME280;5307;42.548;22.968;2023-12-20T09:31:40;93754.56;;;-0.91;100.00
10518;BME280;5307;42.548;22.968;2023-12-20T09:34:09;93747.69;;;-0.85;100.00
10518;BME280;5307;42.548;22.968;2023-12-20T09:36:36;93743.63;;;-0.50;100.00
10518;BME280;5307;42.548;22.968;2023-12-20T09:39:06;93731.72;;;-0.53;100.00
10518;BME280;5307;42.548;22.968;2023-12-20T09:41:36;93721.03;;;-0.35;100.00
10518;BME280;5307;42.548;22.968;2023-12-20T09:44:04;93727.13;;;-0.56;100.00
10518;BME280;5307;42.548;22.968;2023-12-20T09:46:34;93727.53;;;-0.43;100.00
10518;BME280;5307;42.548;22.968;2023-12-20T09:49:05;93714.50;;;-0.48;100.00
10518;BME280;5307;42.548;22.968;2023-12-20T09:51:32;93708.78;;;-0.33;100.00
10518;BME280;5307;42.548;22.968;2023-12-20T09:54:00;93704.19;;;-0.18;100.00
10518;BME280;5307;42.548;22.968;2023-12-20T09:56:29;93693.84;;;-0.12;100.00
10518;BME280;5307;42.548;22.968;2023-12-20T09:58:57;93691.16;;;-0.23;100.00
10518;BME280;5307;42.548;22.968;2023-12-20T10:01:24;93696.13;;;-0.18;100.00
10518;BME280;5307;42.548;22.968;2023-12-20T10:03:54;93678.81;;;0.62;100.00
10518;BME280;5307;42.548;22.968;2023-12-20T10:06:21;93679.53;;;0.69;100.00
10518;BME280;5307;42.548;22.968;2023-12-20T10:08:48;93679.16;;;0.78;100.00
10518;BME280;5307;42.548;22.968;2023-12-20T10:11:15;93676.09;;;0.76;100.00
10518;BME280;5307;42.548;22.968;2023-12-20T10:13:43;93671.59;;;0.34;100.00
10518;BME280;5307;42.548;22.968;2023-12-20T10:16:09;93663.34;;;0.94;100.00
10518;BME280;5307;42.548;22.968;2023-12-20T10:18:36;93651.09;;;0.86;100.00
10518;BME280;5307;42.548;22.968;2023-12-20T10:21:05;93656.75;;;1.13;100.00
10518;BME280;5307;42.548;22.968;2023-12-20T10:23:32;93647.84;;;1.23;100.00
10518;BME280;5307;42.548;22.968;2023-12-20T10:26:00;93646.00;;;1.09;100.00
10518;BME280;5307;42.548;22.968;2023-12-20T10:28:28;93636.31;;;1.23;100.00
10518;BME280;5307;42.548;22.968;2023-12-20T10:30:59;93628.31;;;1.74;100.00
10518;BME280;5307;42.548;22.968;2023-12-20T10:33:27;93617.66;;;1.60;100.00
10518;BME280;5307;42.548;22.968;2023-12-20T10:35:55;93619.28;;;1.47;100.00
10518;BME280;5307;42.548;22.968;2023-12-20T10:38:23;93618.72;;;1.73;100.00
10518;BME280;5307;42.548;22.968;2023-12-20T10:40:54;93601.25;;;1.92;100.00
10518;BME280;5307;42.548;22.968;2023-12-20T10:43:24;93597.59;;;2.13;100.00
10518;BME280;5307;42.548;22.968;2023-12-20T10:45:51;93587.84;;;1.85;100.00
10518;BME280;5307;42.548;22.968;2023-12-20T10:48:18;93594.03;;;1.27;100.00
10518;BME280;5307;42.548;22.968;2023-12-20T10:50:47;93590.56;;;1.30;100.00
10518;BME280;5307;42.548;22.968;2023-12-20T10:53:14;93587.72;;;1.51;100.00
10518;BME280;5307;42.548;22.968;2023-12-20T10:55:44;93581.91;;;1.60;100.00
10518;BME280;5307;42.548;22.968;2023-12-20T10:58:13;93569.44;;;1.76;100.00
10518;BME280;5307;42.548;22.968;2023-12-20T11:00:41;93573.75;;;1.70;100.00
10518;BME280;5307;42.548;22.968;2023-12-20T11:03:11;93566.69;;;1.87;100.00
10518;BME280;5307;42.548;22.968;2023-12-20T11:05:42;93556.59;;;1.95;100.00
10518;BME280;5307;42.548;22.968;2023-12-20T11:08:14;93551.44;;;1.70;100.00
10518;BME280;5307;42.548;22.968;2023-12-20T11:10:49;93547.94;;;2.14;100.00
10518;BME280;5307;42.548;22.968;2023-12-20T11:13:22;93539.91;;;2.45;100.00
10518;BME280;5307;42.548;22.968;2023-12-20T11:15:50;93535.25;;;2.49;100.00
10518;BME280;5307;42.548;22.968;2023-12-20T11:18:17;93521.88;;;2.38;100.00
10518;BME280;5307;42.548;22.968;2023-12-20T11:20:43;93521.19;;;2.64;100.00
10518;BME280;5307;42.548;22.968;2023-12-20T11:23:10;93518.63;;;3.38;100.00
10518;BME280;5307;42.548;22.968;2023-12-20T11:25:52;93514.03;;;3.35;100.00
10518;BME280;5307;42.548;22.968;2023-12-20T11:28:21;93504.25;;;3.45;100.00
10518;BME280;5307;42.548;22.968;2023-12-20T11:30:52;93502.50;;;3.58;100.00
10518;BME280;5307;42.548;22.968;2023-12-20T11:33:22;93492.56;;;3.75;100.00
10518;BME280;5307;42.548;22.968;2023-12-20T11:35:49;93487.09;;;3.78;100.00
10518;BME280;5307;42.548;22.968;2023-12-20T11:38:16;93491.09;;;4.13;100.00
10518;BME280;5307;42.548;22.968;2023-12-20T11:40:43;93469.84;;;4.15;100.00
10518;BME280;5307;42.548;22.968;2023-12-20T11:43:11;93469.84;;;4.15;100.00
10518;BME280;5307;42.548;22.968;2023-12-20T11:45:48;93469.16;;;4.11;100.00
10518;BME280;5307;42.548;22.968;2023-12-20T11:48:16;93464.03;;;4.37;100.00
10518;BME280;5307;42.548;22.968;2023-12-20T11:50:42;93468.09;;;4.45;100.00
10518;BME280;5307;42.548;22.968;2023-12-20T11:53:10;93455.91;;;4.37;100.00
10518;BME280;5307;42.548;22.968;2023-12-20T11:55:37;93457.72;;;4.24;100.00
10518;BME280;5307;42.548;22.968;2023-12-20T11:58:03;93454.53;;;4.29;100.00
10518;BME280;5307;42.548;22.968;2023-12-20T12:00:32;93442.25;;;4.44;100.00
10518;BME280;5307;42.548;22.968;2023-12-20T12:02:59;93434.44;;;4.30;100.00
10518;BME280;5307;42.548;22.968;2023-12-20T12:05:28;93433.53;;;4.36;100.00
10518;BME280;5307;42.548;22.968;2023-12-20T12:07:55;93436.91;;;4.40;100.00
10518;BME280;5307;42.548;22.968;2023-12-20T12:10:21;93426.78;;;4.44;100.00
10518;BME280;5307;42.548;22.968;2023-12-20T12:12:48;93426.94;;;4.37;100.00
10518;BME280;5307;42.548;22.968;2023-12-20T12:15:15;93422.31;;;4.18;100.00
10518;BME280;5307;42.548;22.968;2023-12-20T12:17:43;93409.50;;;4.02;100.00
10518;BME280;5307;42.548;22.968;2023-12-20T12:20:10;93418.81;;;3.58;100.00
10518;BME280;5307;42.548;22.968;2023-12-20T12:22:38;93414.06;;;3.42;100.00
10518;BME280;5307;42.548;22.968;2023-12-20T12:25:12;93416.75;;;2.95;100.00
10518;BME280;5307;42.548;22.968;2023-12-20T12:27:40;93412.72;;;3.07;100.00
10518;BME280;5307;42.548;22.968;2023-12-20T12:30:08;93410.78;;;2.84;100.00
10518;BME280;5307;42.548;22.968;2023-12-20T12:32:38;93405.03;;;3.06;100.00
10518;BME280;5307;42.548;22.968;2023-12-20T12:35:07;93396.75;;;2.93;100.00
10518;BME280;5307;42.548;22.968;2023-12-20T12:37:38;93398.25;;;2.97;100.00
10518;BME280;5307;42.548;22.968;2023-12-20T12:40:06;93396.06;;;2.62;100.00
10518;BME280;5307;42.548;22.968;2023-12-20T12:42:34;93398.91;;;2.78;100.00
10518;BME280;5307;42.548;22.968;2023-12-20T12:45:00;93392.47;;;2.72;100.00
10518;BME280;5307;42.548;22.968;2023-12-20T12:47:27;93389.41;;;2.70;100.00
10518;BME280;5307;42.548;22.968;2023-12-20T12:49:54;93394.50;;;2.64;100.00
10518;BME280;5307;42.548;22.968;2023-12-20T12:52:22;93386.97;;;2.79;100.00
10518;BME280;5307;42.548;22.968;2023-12-20T12:54:49;93380.50;;;2.73;100.00
10518;BME280;5307;42.548;22.968;2023-12-20T12:57:16;93372.59;;;2.62;100.00
10518;BME280;5307;42.548;22.968;2023-12-20T12:59:43;93370.06;;;2.75;100.00
10518;BME280;5307;42.548;22.968;2023-12-20T13:02:11;93371.38;;;2.90;100.00
10518;BME280;5307;42.548;22.968;2023-12-20T13:04:38;93373.59;;;2.95;100.00
10518;BME280;5307;42.548;22.968;2023-12-20T13:07:06;93360.25;;;2.88;100.00